Terminal Aerodrome Forecast
Issued by NWS Billings, MT

Home | Current Version | Previous Version | Graphics & Text | Print | Product List | Glossary On
Versions: 1 2 3 4 5 6 7 8 9 10 11 12 13 14 15
000
FTUS45 KBYZ 191120
TAFMLS
TAF
KMLS 191120Z 1912/2012 28008KT 6SM -RA BKN050 OVC090
     FM191500 33015G25KT P6SM VCSH SCT030 BKN050
     FM191800 31015G30KT P6SM VCSH SCT050 BKN080
     FM192200 27011KT P6SM SCT060
     FM200300 24007KT P6SM SCT100=

USA.gov is the U.S. government's official web portal to all federal, state and local government web resources and services.